Ida — C4CZ2 — position and weather

sailwx.info

Track history (hours):
 
Tides and Currents Weather Stations Pressure Air Temp Water Temp Dewpoint Dewpoint Depression Visibility Wind Speed Wind Dir Waves Ship Positions

Ida

Last reported at 2017-Apr-29 23:00 UTC. Time now 2017-Apr-29 23:21 UTC.
Position N 57°40' E 011°48'.

Length 82 m; draft 3.8 m.

Type: Cargo ship. MMSI: 210319000.

Date/timePositionNaut miles runAvg speedWind from/ knotsBaromVisibWave heightAir tempDewpointWater temp
2017-Apr-29 23:00N 57°40' E 011°48'0 0.0
2017-Apr-29 22:30N 57°40' E 011°48'0 0.0
2017-Apr-29 22:00N 57°40' E 011°48'0 0.1
2017-Apr-29 21:30N 57°40' E 011°48'0 0.0
2017-Apr-29 21:00N 57°40' E 011°48'0 0.0
2017-Apr-29 20:30N 57°40' E 011°48'0 0.0
2017-Apr-29 20:01N 57°40' E 011°48'0 0.1
2017-Apr-29 19:31N 57°40' E 011°48'2 4.4
2017-Apr-29 19:01N 57°39' E 011°44'5 9.1
2017-Apr-29 18:30N 57°36' E 011°40'510.0
2017-Apr-29 18:00N 57°30' E 011°40'510.0
2017-Apr-29 17:30N 57°26' E 011°43'510.0
2017-Apr-29 17:00N 57°21' E 011°46'5 9.8
2017-Apr-29 16:30N 57°16' E 011°49'5 9.7
2017-Apr-29 16:01N 57°12' E 011°52'65 9.7
2017-Apr-29 09:19N 56°11' E 012°30'311.0
2017-Apr-29 09:00N 56°07' E 012°32'611.4
2017-Apr-29 08:31N 56°03' E 012°39'510.1
2017-Apr-29 08:01N 55°59' E 012°42'510.1
2017-Apr-29 07:31N 55°54' E 012°44'5 9.8
2017-Apr-29 07:01N 55°49' E 012°43'510.1
2017-Apr-29 06:30N 55°44' E 012°42'510.6
2017-Apr-29 06:00N 55°38' E 012°42'510.6
2017-Apr-29 05:31N 55°33' E 012°43'5 9.5
2017-Apr-29 05:01N 55°28' E 012°43'5 9.5
2017-Apr-29 04:30N 55°24' E 012°42'5 9.5
2017-Apr-29 04:00N 55°19' E 012°42'5 9.1
2017-Apr-29 03:31N 55°17' E 012°49'5 9.1
2017-Apr-29 03:01N 55°16' E 012°57'5 9.4
2017-Apr-29 02:30N 55°16' E 013°06'12 9.2
2017-Apr-29 01:08N 55°15' E 013°28'1 9.2
2017-Apr-29 01:00N 55°15' E 013°30'5 9.2
2017-Apr-29 00:29N 55°15' E 013°38'5 9.3
2017-Apr-29 00:00N 55°14' E 013°46'5 9.5
2017-Apr-28 23:30N 55°14' E 013°54'5 9.5
2017-Apr-28 23:00N 55°14' E 014°03'5 9.4
2017-Apr-28 22:30N 55°14' E 014°11'4 8.7
2017-Apr-28 22:00N 55°16' E 014°18'5 9.4
2017-Apr-28 21:30N 55°19' E 014°23'5 9.5
2017-Apr-28 21:01N 55°23' E 014°29'5 9.4
2017-Apr-28 20:30N 55°25' E 014°35'5 9.4
2017-Apr-28 20:00N 55°27' E 014°43'5 9.3
2017-Apr-28 19:30N 55°29' E 014°51'5 9.2
2017-Apr-28 19:00N 55°30' E 014°59'5 9.2
2017-Apr-28 18:30N 55°31' E 015°07'4 9.1
2017-Apr-28 18:00N 55°32' E 015°14'5 9.3
2017-Apr-28 17:31N 55°33' E 015°22'5 9.3
2017-Apr-28 17:01N 55°35' E 015°30'5 9.1
2017-Apr-28 16:31N 55°36' E 015°38'5 9.2
2017-Apr-28 16:01N 55°38' E 015°45'5 9.3
2017-Apr-28 15:31N 55°39' E 015°53'5 9.4
2017-Apr-28 15:01N 55°41' E 016°01'9 9.4
2017-Apr-28 14:00N 55°44' E 016°17'5 9.5
2017-Apr-28 13:31N 55°45' E 016°25'5 9.4
2017-Apr-28 13:01N 55°46' E 016°33'5 9.4
2017-Apr-28 12:31N 55°47' E 016°41'5 9.4
2017-Apr-28 12:01N 55°49' E 016°49'5 9.4
2017-Apr-28 11:31N 55°50' E 016°57'5 9.4
2017-Apr-28 11:01N 55°52' E 017°05'5 9.5
2017-Apr-28 10:30N 55°53' E 017°13'7 9.4
2017-Apr-28 09:44N 55°55' E 017°25'2 9.4
2017-Apr-28 09:30N 55°56' E 017°29'5 9.4
2017-Apr-28 09:01N 55°57' E 017°37'  
2017-Apr-25 21:47N 59°13' E 017°37'2 6.4
2017-Apr-25 21:31N 59°15' E 017°36'4 8.4
2017-Apr-25 21:00N 59°19' E 017°33'5 9.5
2017-Apr-25 20:30N 59°22' E 017°27'5 9.4
2017-Apr-25 20:00N 59°26' E 017°22'5 9.1
2017-Apr-25 19:30N 59°28' E 017°14'4 8.5
2017-Apr-25 19:00N 59°31' E 017°08'4 8.9
2017-Apr-25 18:30N 59°32' E 016°59'4 7.8
2017-Apr-25 18:00N 59°29' E 016°55'5 9.4
2017-Apr-25 17:30N 59°30' E 016°46'  
2017-Apr-23 00:10N 59°25' E 017°25'242 7.3
2017-Apr-21 15:06N 55°34' E 015°14'1 8.8
2017-Apr-21 15:01N 55°33' E 015°13'4 8.6
2017-Apr-21 14:29N 55°31' E 015°06'9 8.6
2017-Apr-21 13:29N 55°27' E 014°53'4 8.6
2017-Apr-21 13:00N 55°25' E 014°46'4 8.6
2017-Apr-21 12:30N 55°23' E 014°40'4 8.4
2017-Apr-21 12:00N 55°20' E 014°35'4 8.5
2017-Apr-21 11:30N 55°17' E 014°30'4 8.5
2017-Apr-21 11:00N 55°13' E 014°26'4 8.5
2017-Apr-21 10:30N 55°10' E 014°21'4 8.5
2017-Apr-21 10:00N 55°07' E 014°16'4 8.3
2017-Apr-21 09:30N 55°04' E 014°11'4 8.1
2017-Apr-21 09:01N 55°01' E 014°06'4 8.5
2017-Apr-21 08:31N 54°59' E 013°59'4 8.7
2017-Apr-21 08:01N 54°58' E 013°52'5 9.0
2017-Apr-21 07:30N 54°56' E 013°44'42 8.9
2017-Apr-21 02:47N 54°41' E 012°36'2 8.9
2017-Apr-21 02:31N 54°39' E 012°33'4 8.9
2017-Apr-21 02:01N 54°37' E 012°27'7 8.9
2017-Apr-21 01:17N 54°32' E 012°18'2 8.6
2017-Apr-21 01:01N 54°30' E 012°16'7 8.8
2017-Apr-21 00:12N 54°24' E 012°10'2 8.6
2017-Apr-21 00:00N 54°23' E 012°09'10 8.5
2017-Apr-20 22:51N 54°13' E 012°05'4 1.1
2017-Apr-20 19:01N 54°09' E 012°07'0 0.1
2017-Apr-20 18:58N 54°09' E 012°07'0 0.0
2017-Apr-20 18:22N 54°09' E 012°07'0 0.0
2017-Apr-20 17:58N 54°09' E 012°07'0 0.0
2017-Apr-20 17:13N 54°09' E 012°07'0 0.0
2017-Apr-20 15:16N 54°09' E 012°07'0 0.0
2017-Apr-20 11:58N 54°09' E 012°07'0 0.0
2017-Apr-20 11:28N 54°09' E 012°07'0 0.0
2017-Apr-20 09:07N 54°09' E 012°07'0 0.0
2017-Apr-20 08:34N 54°09' E 012°07'0 0.0
2017-Apr-20 08:10N 54°09' E 012°07'0 0.0
2017-Apr-20 06:46N 54°09' E 012°07'0 0.0
2017-Apr-20 06:25N 54°09' E 012°07'0 0.0
2017-Apr-20 04:58N 54°09' E 012°07'0 0.0
2017-Apr-20 04:28N 54°09' E 012°07'0 0.0
2017-Apr-20 03:58N 54°09' E 012°07'0 0.0
2017-Apr-20 02:58N 54°09' E 012°07'0 0.0
2017-Apr-20 02:28N 54°09' E 012°07'0 0.0
2017-Apr-20 00:55N 54°09' E 012°07'  
Track history (hours):
 
Tides and Currents Weather Stations Pressure Air Temp Water Temp Dewpoint Dewpoint Depression Visibility Wind Speed Wind Dir Waves Ship Positions

Ida

Last reported at 2017-Apr-29 23:00 UTC. Time now 2017-Apr-29 23:21 UTC.
Position N 57°40' E 011°48'.

Length 82 m; draft 3.8 m.

Type: Cargo ship. MMSI: 210319000.

Date/timePositionNaut miles runAvg speedWind from/ knotsBaromVisibWave heightAir tempDewpointWater temp
2017-Apr-29 23:00N 57°40' E 011°48'0 0.0
2017-Apr-29 22:30N 57°40' E 011°48'0 0.0
2017-Apr-29 22:00N 57°40' E 011°48'0 0.1
2017-Apr-29 21:30N 57°40' E 011°48'0 0.0
2017-Apr-29 21:00N 57°40' E 011°48'0 0.0
2017-Apr-29 20:30N 57°40' E 011°48'0 0.0
2017-Apr-29 20:01N 57°40' E 011°48'0 0.1
2017-Apr-29 19:31N 57°40' E 011°48'2 4.4
2017-Apr-29 19:01N 57°39' E 011°44'5 9.1
2017-Apr-29 18:30N 57°36' E 011°40'510.0
2017-Apr-29 18:00N 57°30' E 011°40'510.0
2017-Apr-29 17:30N 57°26' E 011°43'510.0
2017-Apr-29 17:00N 57°21' E 011°46'5 9.8
2017-Apr-29 16:30N 57°16' E 011°49'5 9.7
2017-Apr-29 16:01N 57°12' E 011°52'65 9.7
2017-Apr-29 09:19N 56°11' E 012°30'311.0
2017-Apr-29 09:00N 56°07' E 012°32'611.4
2017-Apr-29 08:31N 56°03' E 012°39'510.1
2017-Apr-29 08:01N 55°59' E 012°42'510.1
2017-Apr-29 07:31N 55°54' E 012°44'5 9.8
2017-Apr-29 07:01N 55°49' E 012°43'510.1
2017-Apr-29 06:30N 55°44' E 012°42'510.6
2017-Apr-29 06:00N 55°38' E 012°42'510.6
2017-Apr-29 05:31N 55°33' E 012°43'5 9.5
2017-Apr-29 05:01N 55°28' E 012°43'5 9.5
2017-Apr-29 04:30N 55°24' E 012°42'5 9.5
2017-Apr-29 04:00N 55°19' E 012°42'5 9.1
2017-Apr-29 03:31N 55°17' E 012°49'5 9.1
2017-Apr-29 03:01N 55°16' E 012°57'5 9.4
2017-Apr-29 02:30N 55°16' E 013°06'12 9.2
2017-Apr-29 01:08N 55°15' E 013°28'1 9.2
2017-Apr-29 01:00N 55°15' E 013°30'5 9.2
2017-Apr-29 00:29N 55°15' E 013°38'5 9.3
2017-Apr-29 00:00N 55°14' E 013°46'5 9.5
2017-Apr-28 23:30N 55°14' E 013°54'5 9.5
2017-Apr-28 23:00N 55°14' E 014°03'5 9.4
2017-Apr-28 22:30N 55°14' E 014°11'4 8.7
2017-Apr-28 22:00N 55°16' E 014°18'5 9.4
2017-Apr-28 21:30N 55°19' E 014°23'5 9.5
2017-Apr-28 21:01N 55°23' E 014°29'5 9.4
2017-Apr-28 20:30N 55°25' E 014°35'5 9.4
2017-Apr-28 20:00N 55°27' E 014°43'5 9.3
2017-Apr-28 19:30N 55°29' E 014°51'5 9.2
2017-Apr-28 19:00N 55°30' E 014°59'5 9.2
2017-Apr-28 18:30N 55°31' E 015°07'4 9.1
2017-Apr-28 18:00N 55°32' E 015°14'5 9.3
2017-Apr-28 17:31N 55°33' E 015°22'5 9.3
2017-Apr-28 17:01N 55°35' E 015°30'5 9.1
2017-Apr-28 16:31N 55°36' E 015°38'5 9.2
2017-Apr-28 16:01N 55°38' E 015°45'5 9.3
2017-Apr-28 15:31N 55°39' E 015°53'5 9.4
2017-Apr-28 15:01N 55°41' E 016°01'9 9.4
2017-Apr-28 14:00N 55°44' E 016°17'5 9.5
2017-Apr-28 13:31N 55°45' E 016°25'5 9.4
2017-Apr-28 13:01N 55°46' E 016°33'5 9.4
2017-Apr-28 12:31N 55°47' E 016°41'5 9.4
2017-Apr-28 12:01N 55°49' E 016°49'5 9.4
2017-Apr-28 11:31N 55°50' E 016°57'5 9.4
2017-Apr-28 11:01N 55°52' E 017°05'5 9.5
2017-Apr-28 10:30N 55°53' E 017°13'7 9.4
2017-Apr-28 09:44N 55°55' E 017°25'2 9.4
2017-Apr-28 09:30N 55°56' E 017°29'5 9.4
2017-Apr-28 09:01N 55°57' E 017°37'  
2017-Apr-25 21:47N 59°13' E 017°37'2 6.4
2017-Apr-25 21:31N 59°15' E 017°36'4 8.4
2017-Apr-25 21:00N 59°19' E 017°33'5 9.5
2017-Apr-25 20:30N 59°22' E 017°27'5 9.4
2017-Apr-25 20:00N 59°26' E 017°22'5 9.1
2017-Apr-25 19:30N 59°28' E 017°14'4 8.5
2017-Apr-25 19:00N 59°31' E 017°08'4 8.9
2017-Apr-25 18:30N 59°32' E 016°59'4 7.8
2017-Apr-25 18:00N 59°29' E 016°55'5 9.4
2017-Apr-25 17:30N 59°30' E 016°46'  
2017-Apr-23 00:10N 59°25' E 017°25'242 7.3
2017-Apr-21 15:06N 55°34' E 015°14'1 8.8
2017-Apr-21 15:01N 55°33' E 015°13'4 8.6
2017-Apr-21 14:29N 55°31' E 015°06'9 8.6
2017-Apr-21 13:29N 55°27' E 014°53'4 8.6
2017-Apr-21 13:00N 55°25' E 014°46'4 8.6
2017-Apr-21 12:30N 55°23' E 014°40'4 8.4
2017-Apr-21 12:00N 55°20' E 014°35'4 8.5
2017-Apr-21 11:30N 55°17' E 014°30'4 8.5
2017-Apr-21 11:00N 55°13' E 014°26'4 8.5
2017-Apr-21 10:30N 55°10' E 014°21'4 8.5
2017-Apr-21 10:00N 55°07' E 014°16'4 8.3
2017-Apr-21 09:30N 55°04' E 014°11'4 8.1
2017-Apr-21 09:01N 55°01' E 014°06'4 8.5
2017-Apr-21 08:31N 54°59' E 013°59'4 8.7
2017-Apr-21 08:01N 54°58' E 013°52'5 9.0
2017-Apr-21 07:30N 54°56' E 013°44'42 8.9
2017-Apr-21 02:47N 54°41' E 012°36'2 8.9
2017-Apr-21 02:31N 54°39' E 012°33'4 8.9
2017-Apr-21 02:01N 54°37' E 012°27'7 8.9
2017-Apr-21 01:17N 54°32' E 012°18'2 8.6
2017-Apr-21 01:01N 54°30' E 012°16'7 8.8
2017-Apr-21 00:12N 54°24' E 012°10'2 8.6
2017-Apr-21 00:00N 54°23' E 012°09'10 8.5
2017-Apr-20 22:51N 54°13' E 012°05'4 1.1
2017-Apr-20 19:01N 54°09' E 012°07'0 0.1
2017-Apr-20 18:58N 54°09' E 012°07'0 0.0
2017-Apr-20 18:22N 54°09' E 012°07'0 0.0
2017-Apr-20 17:58N 54°09' E 012°07'0 0.0
2017-Apr-20 17:13N 54°09' E 012°07'0 0.0
2017-Apr-20 15:16N 54°09' E 012°07'0 0.0
2017-Apr-20 11:58N 54°09' E 012°07'0 0.0
2017-Apr-20 11:28N 54°09' E 012°07'0 0.0
2017-Apr-20 09:07N 54°09' E 012°07'0 0.0
2017-Apr-20 08:34N 54°09' E 012°07'0 0.0
2017-Apr-20 08:10N 54°09' E 012°07'0 0.0
2017-Apr-20 06:46N 54°09' E 012°07'0 0.0
2017-Apr-20 06:25N 54°09' E 012°07'0 0.0
2017-Apr-20 04:58N 54°09' E 012°07'0 0.0
2017-Apr-20 04:28N 54°09' E 012°07'0 0.0
2017-Apr-20 03:58N 54°09' E 012°07'0 0.0
2017-Apr-20 02:58N 54°09' E 012°07'0 0.0
2017-Apr-20 02:28N 54°09' E 012°07'0 0.0
2017-Apr-20 00:55N 54°09' E 012°07'  

Dump ship's entire track history